Time,TemperatureF,DewpointF,PressureIn,WindDirection,WindDirectionDegrees,WindSpeedMPH,WindSpeedGustMPH,Humidity,HourlyPrecipIn,Conditions,Clouds,dailyrainin,SolarRadiationWatts/m^2,SoftwareType,DateUTC
2013-01-19 00:02:00,34.0,11.0,-100.00,SW,218,3.0,11.0,38,0.00,,,0.06,1.000000,,2013-01-19 07:02:00,
2013-01-19 00:12:00,34.0,11.0,-100.00,SW,218,3.0,11.0,38,0.00,,,0.06,1.000000,,2013-01-19 07:12:00,
2013-01-19 00:22:00,34.0,11.0,-100.00,SW,218,3.0,11.0,38,0.00,,,0.06,1.000000,,2013-01-19 07:22:00,
2013-01-19 00:43:00,33.0,11.0,-100.00,SW,226,4.0,7.0,40,0.00,,,0.06,1.000000,,2013-01-19 07:43:00,
2013-01-19 00:53:00,33.0,11.0,-100.00,SW,226,4.0,7.0,40,0.00,,,0.06,1.000000,,2013-01-19 07:53:00,
2013-01-19 01:02:00,33.0,11.0,-100.00,SW,226,4.0,7.0,40,0.00,,,0.06,1.000000,,2013-01-19 08:02:00,
2013-01-19 01:12:00,33.0,11.0,-100.00,SW,226,4.0,7.0,40,0.00,,,0.06,1.000000,,2013-01-19 08:12:00,
2013-01-19 01:22:00,33.0,11.0,-100.00,SW,226,4.0,7.0,40,0.00,,,0.06,1.000000,,2013-01-19 08:22:00,
2013-01-19 01:43:00,35.0,11.0,-100.00,WSW,251,6.0,12.0,37,0.00,,,0.06,1.000000,,2013-01-19 08:43:00,
2013-01-19 01:53:00,35.0,11.0,-100.00,WSW,251,6.0,12.0,37,0.00,,,0.06,1.000000,,2013-01-19 08:53:00,
2013-01-19 02:02:00,35.0,11.0,-100.00,WSW,251,6.0,12.0,37,0.00,,,0.06,1.000000,,2013-01-19 09:02:00,
2013-01-19 02:12:00,35.0,11.0,-100.00,WSW,251,6.0,12.0,37,0.00,,,0.06,1.000000,,2013-01-19 09:12:00,
2013-01-19 02:22:00,35.0,11.0,-100.00,WSW,251,6.0,12.0,37,0.00,,,0.06,1.000000,,2013-01-19 09:22:00,
2013-01-19 02:43:00,33.0,12.0,-100.00,WSW,252,4.0,14.0,42,0.00,,,0.06,0.000000,,2013-01-19 09:43:00,
2013-01-19 02:53:00,33.0,12.0,-100.00,WSW,252,4.0,14.0,42,0.00,,,0.06,0.000000,,2013-01-19 09:53:00,
2013-01-19 03:02:00,33.0,12.0,-100.00,WSW,252,4.0,14.0,42,0.00,,,0.06,0.000000,,2013-01-19 10:02:00,
2013-01-19 03:12:00,33.0,12.0,-100.00,WSW,252,4.0,14.0,42,0.00,,,0.06,0.000000,,2013-01-19 10:12:00,
2013-01-19 03:22:00,33.0,12.0,-100.00,WSW,252,4.0,14.0,42,0.00,,,0.06,0.000000,,2013-01-19 10:22:00,
2013-01-19 03:43:00,32.0,12.0,-100.00,SSW,200,3.0,9.0,43,0.00,,,0.06,1.000000,,2013-01-19 10:43:00,
2013-01-19 03:53:00,32.0,12.0,-100.00,SSW,200,3.0,9.0,43,0.00,,,0.06,1.000000,,2013-01-19 10:53:00,
2013-01-19 04:03:00,32.0,12.0,-100.00,SSW,200,3.0,9.0,43,0.00,,,0.06,1.000000,,2013-01-19 11:03:00,
2013-01-19 04:12:00,32.0,12.0,-100.00,SSW,200,3.0,9.0,43,0.00,,,0.06,1.000000,,2013-01-19 11:12:00,
2013-01-19 05:48:00,31.0,13.0,-100.00,SW,218,5.0,15.0,46,0.00,,,0.06,1.000000,,2013-01-19 12:48:00,
2013-01-19 05:53:00,31.0,13.0,-100.00,SW,218,5.0,15.0,46,0.00,,,0.06,1.000000,,2013-01-19 12:53:00,
2013-01-19 06:03:00,31.0,13.0,-100.00,SW,218,5.0,15.0,46,0.00,,,0.06,1.000000,,2013-01-19 13:03:00,
2013-01-19 06:12:00,31.0,13.0,-100.00,SW,218,5.0,15.0,46,0.00,,,0.06,1.000000,,2013-01-19 13:12:00,
2013-01-19 06:22:00,31.0,13.0,-100.00,SW,218,5.0,15.0,46,0.00,,,0.06,1.000000,,2013-01-19 13:22:00,
2013-01-19 06:43:00,33.0,12.0,-100.00,West,276,6.0,18.0,41,0.00,,,0.06,1.000000,,2013-01-19 13:43:00,
2013-01-19 06:53:00,33.0,12.0,-100.00,West,276,6.0,18.0,41,0.00,,,0.06,1.000000,,2013-01-19 13:53:00,
2013-01-19 07:02:00,33.0,12.0,-100.00,West,276,6.0,18.0,41,0.00,,,0.06,1.000000,,2013-01-19 14:02:00,
2013-01-19 07:12:00,33.0,12.0,-100.00,West,276,6.0,18.0,41,0.00,,,0.06,1.000000,,2013-01-19 14:12:00,
2013-01-19 07:23:00,33.0,12.0,-100.00,West,276,6.0,18.0,41,0.00,,,0.06,1.000000,,2013-01-19 14:23:00,
2013-01-19 07:43:00,32.0,11.0,-100.00,WSW,258,5.0,18.0,41,0.00,,,0.06,1.000000,,2013-01-19 14:43:00,
2013-01-19 07:53:00,32.0,11.0,-100.00,WSW,258,5.0,18.0,41,0.00,,,0.06,1.000000,,2013-01-19 14:53:00,
2013-01-19 08:03:00,32.0,11.0,-100.00,WSW,258,5.0,18.0,41,0.00,,,0.06,1.000000,,2013-01-19 15:03:00,
2013-01-19 08:12:00,32.0,11.0,-100.00,WSW,258,5.0,18.0,41,0.00,,,0.06,1.000000,,2013-01-19 15:12:00,
2013-01-19 08:22:00,32.0,11.0,-100.00,WSW,258,5.0,18.0,41,0.00,,,0.06,1.000000,,2013-01-19 15:22:00,
2013-01-19 08:43:00,33.0,11.0,-100.00,SW,223,5.0,17.0,39,0.00,,,0.06,16.000000,,2013-01-19 15:43:00,
2013-01-19 08:53:00,33.0,11.0,-100.00,SW,223,5.0,17.0,39,0.00,,,0.06,16.000000,,2013-01-19 15:53:00,
2013-01-19 09:03:00,33.0,11.0,-100.00,SW,223,5.0,17.0,39,0.00,,,0.06,16.000000,,2013-01-19 16:03:00,
2013-01-19 09:13:00,33.0,11.0,-100.00,SW,223,5.0,17.0,39,0.00,,,0.06,16.000000,,2013-01-19 16:13:00,
2013-01-19 09:23:00,33.0,11.0,-100.00,SW,223,5.0,17.0,39,0.00,,,0.06,16.000000,,2013-01-19 16:23:00,
2013-01-19 09:43:00,39.0,12.0,-100.00,NW,304,6.0,18.0,32,0.00,,,0.06,175.000000,,2013-01-19 16:43:00,
2013-01-19 09:54:00,39.0,12.0,-100.00,NW,304,6.0,18.0,32,0.00,,,0.06,175.000000,,2013-01-19 16:54:00,
2013-01-19 10:03:00,39.0,12.0,-100.00,NW,304,6.0,18.0,32,0.00,,,0.06,175.000000,,2013-01-19 17:03:00,
2013-01-19 10:19:00,39.0,12.0,-100.00,NW,304,6.0,18.0,32,0.00,,,0.06,175.000000,,2013-01-19 17:19:00,
2013-01-19 10:24:00,41.0,11.0,-100.00,WSW,241,6.0,14.0,29,0.00,,,0.05,311.000000,,2013-01-19 17:24:00,
2013-01-19 10:50:00,41.0,11.0,-100.00,WSW,241,6.0,14.0,29,0.00,,,0.05,311.000000,,2013-01-19 17:50:00,
2013-01-19 10:55:00,41.0,11.0,-100.00,WSW,241,6.0,14.0,29,0.00,,,0.05,311.000000,,2013-01-19 17:55:00,
2013-01-19 11:11:00,41.0,11.0,-100.00,WSW,241,6.0,14.0,29,0.00,,,0.05,311.000000,,2013-01-19 18:11:00,
2013-01-19 11:24:00,43.0,12.0,-100.00,SW,214,5.0,14.0,28,0.00,,,0.04,424.000000,,2013-01-19 18:24:00,
2013-01-19 11:48:00,43.0,12.0,-100.00,SW,214,5.0,14.0,28,0.00,,,0.04,424.000000,,2013-01-19 18:48:00,
2013-01-19 12:09:00,43.0,12.0,-100.00,SW,214,5.0,14.0,28,0.00,,,0.04,424.000000,,2013-01-19 19:09:00,
2013-01-19 12:24:00,44.0,15.0,-100.00,SW,220,4.0,17.0,30,0.00,,,0.02,356.000000,,2013-01-19 19:24:00,
2013-01-19 12:50:00,44.0,15.0,-100.00,SW,220,4.0,17.0,30,0.00,,,0.02,356.000000,,2013-01-19 19:50:00,
2013-01-19 13:10:00,44.0,15.0,-100.00,SW,220,4.0,17.0,30,0.00,,,0.02,356.000000,,2013-01-19 20:10:00,
2013-01-19 13:19:00,44.0,15.0,-100.00,SW,220,4.0,17.0,30,0.00,,,0.02,356.000000,,2013-01-19 20:19:00,
2013-01-19 13:50:00,44.0,15.0,-100.00,South,189,4.0,9.0,30,0.00,,,0.00,478.000000,,2013-01-19 20:50:00,
2013-01-19 13:59:00,44.0,15.0,-100.00,South,189,4.0,9.0,30,0.00,,,0.00,478.000000,,2013-01-19 20:59:00,
2013-01-19 14:06:00,44.0,15.0,-100.00,South,189,4.0,9.0,30,0.00,,,0.00,478.000000,,2013-01-19 21:06:00,
2013-01-19 14:14:00,44.0,15.0,-100.00,South,189,4.0,9.0,30,0.00,,,0.00,478.000000,,2013-01-19 21:14:00,
2013-01-19 14:24:00,42.0,14.0,-100.00,SW,224,5.0,12.0,32,0.00,,,0.00,410.000000,,2013-01-19 21:24:00,
2013-01-19 14:53:00,42.0,14.0,-100.00,SW,224,5.0,12.0,32,0.00,,,0.00,410.000000,,2013-01-19 21:53:00,
2013-01-19 15:00:00,42.0,14.0,-100.00,SW,224,5.0,12.0,32,0.00,,,0.00,410.000000,,2013-01-19 22:00:00,
2013-01-19 15:17:00,42.0,14.0,-100.00,SW,224,5.0,12.0,32,0.00,,,0.00,410.000000,,2013-01-19 22:17:00,
2013-01-19 15:24:00,41.0,12.0,-100.00,NW,316,4.0,11.0,30,0.00,,,0.00,281.000000,,2013-01-19 22:24:00,
2013-01-19 15:49:00,41.0,12.0,-100.00,NW,316,4.0,11.0,30,0.00,,,0.00,281.000000,,2013-01-19 22:49:00,
2013-01-19 15:58:00,41.0,12.0,-100.00,NW,316,4.0,11.0,30,0.00,,,0.00,281.000000,,2013-01-19 22:58:00,
2013-01-19 16:13:00,41.0,12.0,-100.00,NW,316,4.0,11.0,30,0.00,,,0.00,281.000000,,2013-01-19 23:13:00,
2013-01-19 16:24:00,34.0,10.0,-100.00,NNW,328,4.0,11.0,36,0.00,,,-99.99,105.000000,,2013-01-19 23:24:00,
2013-01-19 16:51:00,34.0,10.0,-100.00,NNW,328,4.0,11.0,36,0.00,,,-99.99,105.000000,,2013-01-19 23:51:00,
2013-01-19 17:07:00,34.0,10.0,-100.00,NNW,328,4.0,11.0,36,0.00,,,-99.99,105.000000,,2013-01-20 00:07:00,
2013-01-19 17:15:00,34.0,10.0,-100.00,NNW,328,4.0,11.0,36,0.00,,,-99.99,105.000000,,2013-01-20 00:15:00,
2013-01-19 17:48:00,30.0,12.0,-100.00,ENE,74,2.0,8.0,47,0.00,,,0.00,5.000000,,2013-01-20 00:48:00,
2013-01-19 17:57:00,30.0,12.0,-100.00,ENE,74,2.0,8.0,47,0.00,,,0.00,5.000000,,2013-01-20 00:57:00,
2013-01-19 18:04:00,30.0,12.0,-100.00,ENE,74,2.0,8.0,47,0.00,,,0.00,5.000000,,2013-01-20 01:04:00,
2013-01-19 18:19:00,30.0,12.0,-100.00,ENE,74,2.0,8.0,47,0.00,,,0.00,5.000000,,2013-01-20 01:19:00,
2013-01-19 18:24:00,27.0,13.0,-100.00,South,189,2.0,4.0,56,0.00,,,0.00,1.000000,,2013-01-20 01:24:00,
2013-01-19 18:51:00,27.0,13.0,-100.00,South,189,2.0,4.0,56,0.00,,,0.00,1.000000,,2013-01-20 01:51:00,
2013-01-19 19:07:00,27.0,13.0,-100.00,South,189,2.0,4.0,56,0.00,,,0.00,1.000000,,2013-01-20 02:07:00,
2013-01-19 19:24:00,25.0,19.0,-100.00,SW,228,3.0,8.0,79,0.00,,,0.00,1.000000,,2013-01-20 02:24:00,
2013-01-19 19:45:00,25.0,19.0,-100.00,SW,228,3.0,8.0,79,0.00,,,0.00,1.000000,,2013-01-20 02:45:00,
2013-01-19 19:59:00,25.0,19.0,-100.00,SW,228,3.0,8.0,79,0.00,,,0.00,1.000000,,2013-01-20 02:59:00,
2013-01-19 20:08:00,25.0,19.0,-100.00,SW,228,3.0,8.0,79,0.00,,,0.00,1.000000,,2013-01-20 03:08:00,
2013-01-19 20:14:00,25.0,19.0,-100.00,SW,228,3.0,8.0,79,0.00,,,0.00,1.000000,,2013-01-20 03:14:00,
2013-01-19 20:24:00,24.0,20.0,-100.00,WSW,241,3.0,8.0,84,0.00,,,0.00,1.000000,,2013-01-20 03:24:00,
2013-01-19 20:47:00,24.0,20.0,-100.00,WSW,241,3.0,8.0,84,0.00,,,0.00,1.000000,,2013-01-20 03:47:00,
2013-01-19 20:58:00,24.0,20.0,-100.00,WSW,241,3.0,8.0,84,0.00,,,0.00,1.000000,,2013-01-20 03:58:00,
2013-01-19 21:05:00,24.0,20.0,-100.00,WSW,241,3.0,8.0,84,0.00,,,0.00,1.000000,,2013-01-20 04:05:00,
2013-01-19 21:15:00,24.0,20.0,-100.00,WSW,241,3.0,8.0,84,0.00,,,0.00,1.000000,,2013-01-20 04:15:00,
2013-01-19 21:45:00,22.0,20.0,-100.00,WNW,287,2.0,8.0,90,0.00,,,0.00,1.000000,,2013-01-20 04:45:00,
2013-01-19 21:58:00,22.0,20.0,-100.00,WNW,287,2.0,8.0,90,0.00,,,0.00,1.000000,,2013-01-20 04:58:00,
2013-01-19 22:04:00,22.0,20.0,-100.00,WNW,287,2.0,8.0,90,0.00,,,0.00,1.000000,,2013-01-20 05:04:00,
2013-01-19 22:12:00,22.0,20.0,-100.00,WNW,287,2.0,8.0,90,0.00,,,0.00,1.000000,,2013-01-20 05:12:00,
2013-01-19 22:22:00,22.0,20.0,-100.00,WNW,287,2.0,8.0,90,0.00,,,0.00,1.000000,,2013-01-20 05:22:00,
2013-01-19 22:43:00,21.0,19.0,-100.00,WNW,285,4.0,7.0,92,0.00,,,0.00,1.000000,,2013-01-20 05:43:00,
2013-01-19 22:53:00,21.0,19.0,-100.00,WNW,285,4.0,7.0,92,0.00,,,0.00,1.000000,,2013-01-20 05:53:00,
2013-01-19 23:02:00,21.0,19.0,-100.00,WNW,285,4.0,7.0,92,0.00,,,0.00,1.000000,,2013-01-20 06:02:00,
2013-01-19 23:12:00,21.0,19.0,-100.00,WNW,285,4.0,7.0,92,0.00,,,0.00,1.000000,,2013-01-20 06:12:00,
2013-01-19 23:22:00,21.0,19.0,-100.00,WNW,285,4.0,7.0,92,0.00,,,0.00,1.000000,,2013-01-20 06:22:00,
2013-01-19 23:43:00,20.0,18.0,-100.00,WSW,258,3.0,8.0,91,0.00,,,0.00,1.000000,,2013-01-20 06:43:00,
2013-01-19 23:53:00,20.0,18.0,-100.00,WSW,258,3.0,8.0,91,0.00,,,0.00,1.000000,,2013-01-20 06:53:00,